Terminal Aerodrome Forecast
Issued by NWS Cleveland, OH

Home | Current Version | Previous Version | Graphics & Text | Print | Product List | Glossary On
Versions: 1 2 3 4 5 6 7 8 9 10 11 12 13 14 15 16 17 18 19 20 21 22 23 24 25
000
FTUS41 KCLE 282339
TAFMFD
TAF
KMFD 282339Z 2900/2924 09006KT P6SM -RA VCTS SCT050CB OVC090
     FM290100 10006KT 4SM -TSRA SCT035CB BKN050
     FM290500 13009KT 6SM -SHRA VCTS OVC020CB
      TEMPO 2905/2908 4SM -SHRA OVC012
     FM290800 18007KT P6SM OVC010
     FM291100 23007KT P6SM VCSH OVC007
     FM291300 02006KT 5SM -SHRA OVC007
     FM291800 02006KT P6SM OVC010=

USA.gov is the U.S. government's official web portal to all federal, state and local government web resources and services.